sensor_id;sensor_type;location;lat;lon;timestamp;pressure;altitude;pressure_sealevel;temperature;humidity
28630;BME280;15817;42.130;24.762;2023-08-17T00:02:22;99776.97;;;26.12;55.45
28630;BME280;15817;42.130;24.762;2023-08-17T00:24:36;99770.31;;;25.91;56.75
28630;BME280;15817;42.130;24.762;2023-08-17T00:27:28;99774.34;;;25.85;56.91
28630;BME280;15817;42.130;24.762;2023-08-17T00:34:54;99781.00;;;25.81;57.67
28630;BME280;15817;42.130;24.762;2023-08-17T00:38:15;99768.13;;;25.71;58.16
28630;BME280;15817;42.130;24.762;2023-08-17T00:40:54;99764.63;;;25.69;58.11
28630;BME280;15817;42.130;24.762;2023-08-17T00:51:12;99773.53;;;25.58;59.21
28630;BME280;15817;42.130;24.762;2023-08-17T00:58:54;99784.84;;;25.52;59.77
28630;BME280;15817;42.130;24.762;2023-08-17T01:18:15;99779.25;;;25.41;60.57
28630;BME280;15817;42.130;24.762;2023-08-17T01:22:04;99765.38;;;25.31;60.36
28630;BME280;15817;42.130;24.762;2023-08-17T01:29:19;99770.28;;;25.26;60.17
28630;BME280;15817;42.130;24.762;2023-08-17T01:36:45;99784.09;;;25.23;60.23
28630;BME280;15817;42.130;24.762;2023-08-17T01:40:08;99773.94;;;25.12;60.66
28630;BME280;15817;42.130;24.762;2023-08-17T01:58:56;99771.94;;;25.02;61.23
28630;BME280;15817;42.130;24.762;2023-08-17T02:05:24;99767.66;;;24.83;61.66
28630;BME280;15817;42.130;24.762;2023-08-17T02:08:12;99772.81;;;24.88;62.08
28630;BME280;15817;42.130;24.762;2023-08-17T02:11:30;99762.91;;;24.87;62.28
28630;BME280;15817;42.130;24.762;2023-08-17T02:18:39;99763.09;;;24.84;63.21
28630;BME280;15817;42.130;24.762;2023-08-17T02:21:41;99759.16;;;24.75;63.88
28630;BME280;15817;42.130;24.762;2023-08-17T02:28:11;99754.97;;;24.70;65.21
28630;BME280;15817;42.130;24.762;2023-08-17T03:02:35;99763.97;;;24.43;66.59
28630;BME280;15817;42.130;24.762;2023-08-17T03:05:29;99757.75;;;24.41;66.53
28630;BME280;15817;42.130;24.762;2023-08-17T03:09:15;99765.13;;;24.39;66.19
28630;BME280;15817;42.130;24.762;2023-08-17T03:13:06;99765.34;;;24.36;65.77
28630;BME280;15817;42.130;24.762;2023-08-17T03:34:38;99763.75;;;24.18;63.95
28630;BME280;15817;42.130;24.762;2023-08-17T03:37:37;99779.00;;;24.21;62.68
28630;BME280;15817;42.130;24.762;2023-08-17T03:40:55;99772.19;;;24.13;62.66
28630;BME280;15817;42.130;24.762;2023-08-17T03:43:58;99772.28;;;24.12;62.43
28630;BME280;15817;42.130;24.762;2023-08-17T03:58:06;99780.63;;;23.80;66.73
28630;BME280;15817;42.130;24.762;2023-08-17T04:00:56;99784.50;;;23.76;67.11
28630;BME280;15817;42.130;24.762;2023-08-17T04:03:54;99778.00;;;23.79;66.15
28630;BME280;15817;42.130;24.762;2023-08-17T04:07:01;99782.28;;;23.83;65.34
28630;BME280;15817;42.130;24.762;2023-08-17T04:17:24;99789.06;;;23.76;63.02
28630;BME280;15817;42.130;24.762;2023-08-17T04:20:50;99788.84;;;23.79;63.29
28630;BME280;15817;42.130;24.762;2023-08-17T04:24:05;99792.19;;;23.84;63.77
28630;BME280;15817;42.130;24.762;2023-08-17T04:27:28;99785.88;;;23.83;63.83
28630;BME280;15817;42.130;24.762;2023-08-17T04:33:42;99790.03;;;23.89;63.65
28630;BME280;15817;42.130;24.762;2023-08-17T04:44:49;99796.47;;;24.02;61.59
28630;BME280;15817;42.130;24.762;2023-08-17T04:59:40;99789.28;;;24.01;63.63
28630;BME280;15817;42.130;24.762;2023-08-17T05:11:05;99796.56;;;24.01;64.01
28630;BME280;15817;42.130;24.762;2023-08-17T05:13:39;99808.03;;;24.06;64.01
28630;BME280;15817;42.130;24.762;2023-08-17T05:16:45;99801.53;;;24.08;64.01
28630;BME280;15817;42.130;24.762;2023-08-17T05:19:17;99799.78;;;24.07;64.23
28630;BME280;15817;42.130;24.762;2023-08-17T05:37:14;99799.09;;;24.18;64.97
28630;BME280;15817;42.130;24.762;2023-08-17T05:44:24;99796.78;;;24.26;65.49
28630;BME280;15817;42.130;24.762;2023-08-17T05:47:13;99792.31;;;24.25;65.68
28630;BME280;15817;42.130;24.762;2023-08-17T05:50:25;99800.69;;;24.36;65.94
28630;BME280;15817;42.130;24.762;2023-08-17T05:53:46;99787.09;;;24.36;66.11
28630;BME280;15817;42.130;24.762;2023-08-17T05:56:24;99792.53;;;24.36;66.39
28630;BME280;15817;42.130;24.762;2023-08-17T05:58:59;99792.25;;;24.41;65.94
28630;BME280;15817;42.130;24.762;2023-08-17T06:01:28;99789.81;;;24.36;66.25
28630;BME280;15817;42.130;24.762;2023-08-17T06:04:05;99782.34;;;24.40;65.97
28630;BME280;15817;42.130;24.762;2023-08-17T06:06:47;99783.38;;;24.37;64.59
28630;BME280;15817;42.130;24.762;2023-08-17T06:12:56;99777.56;;;24.43;64.88
28630;BME280;15817;42.130;24.762;2023-08-17T06:15:59;99773.66;;;24.47;64.35
28630;BME280;15817;42.130;24.762;2023-08-17T06:19:00;99786.00;;;24.53;64.76
28630;BME280;15817;42.130;24.762;2023-08-17T06:21:44;99782.41;;;24.52;64.62
28630;BME280;15817;42.130;24.762;2023-08-17T06:24:20;99788.41;;;24.58;64.53
28630;BME280;15817;42.130;24.762;2023-08-17T06:27:36;99789.97;;;24.62;64.87
28630;BME280;15817;42.130;24.762;2023-08-17T06:30:39;99779.97;;;24.62;65.28
28630;BME280;15817;42.130;24.762;2023-08-17T06:33:18;99787.75;;;24.68;65.39
28630;BME280;15817;42.130;24.762;2023-08-17T06:40:21;99792.69;;;24.76;65.46
28630;BME280;15817;42.130;24.762;2023-08-17T06:43:27;99784.50;;;24.76;65.50
28630;BME280;15817;42.130;24.762;2023-08-17T07:54:54;99764.50;;;26.59;58.88
28630;BME280;15817;42.130;24.762;2023-08-17T12:19:53;99536.50;;;35.66;28.71
28630;BME280;15817;42.130;24.762;2023-08-17T12:39:00;99518.38;;;35.55;27.86
28630;BME280;15817;42.130;24.762;2023-08-17T13:15:16;99501.66;;;35.33;28.39
28630;BME280;15817;42.130;24.762;2023-08-17T13:17:42;99509.47;;;35.29;28.37
28630;BME280;15817;42.130;24.762;2023-08-17T13:20:14;99503.75;;;35.14;28.28
28630;BME280;15817;42.130;24.762;2023-08-17T13:22:40;99497.00;;;35.17;28.79
28630;BME280;15817;42.130;24.762;2023-08-17T13:25:16;99497.19;;;35.15;29.12
28630;BME280;15817;42.130;24.762;2023-08-17T13:27:55;99495.13;;;35.17;29.22
28630;BME280;15817;42.130;24.762;2023-08-17T13:30:23;99495.28;;;35.16;29.18
28630;BME280;15817;42.130;24.762;2023-08-17T13:32:57;99498.22;;;35.14;29.62
28630;BME280;15817;42.130;24.762;2023-08-17T13:35:58;99501.50;;;35.10;30.16
28630;BME280;15817;42.130;24.762;2023-08-17T13:38:40;99505.50;;;35.07;29.90
28630;BME280;15817;42.130;24.762;2023-08-17T13:41:08;99508.94;;;35.01;29.95
28630;BME280;15817;42.130;24.762;2023-08-17T13:43:34;99503.09;;;35.04;30.28
28630;BME280;15817;42.130;24.762;2023-08-17T13:46:02;99493.94;;;34.88;30.21
28630;BME280;15817;42.130;24.762;2023-08-17T13:48:31;99490.28;;;34.87;30.55
28630;BME280;15817;42.130;24.762;2023-08-17T13:51:07;99492.72;;;34.90;30.90
28630;BME280;15817;42.130;24.762;2023-08-17T13:53:47;99498.59;;;34.87;31.18
28630;BME280;15817;42.130;24.762;2023-08-17T13:56:30;99490.66;;;34.84;30.84
28630;BME280;15817;42.130;24.762;2023-08-17T13:59:45;99499.63;;;34.78;30.70
28630;BME280;15817;42.130;24.762;2023-08-17T14:02:21;99499.28;;;34.73;30.97
28630;BME280;15817;42.130;24.762;2023-08-17T14:05:05;99478.00;;;34.65;31.48
28630;BME280;15817;42.130;24.762;2023-08-17T14:07:42;99490.47;;;34.61;31.75
28630;BME280;15817;42.130;24.762;2023-08-17T14:10:18;99480.59;;;34.59;31.80
28630;BME280;15817;42.130;24.762;2023-08-17T14:12:44;99479.72;;;34.50;32.03
28630;BME280;15817;42.130;24.762;2023-08-17T14:15:13;99496.13;;;34.51;32.44
28630;BME280;15817;42.130;24.762;2023-08-17T14:17:40;99482.31;;;34.51;32.22
28630;BME280;15817;42.130;24.762;2023-08-17T14:20:23;99486.28;;;34.41;31.64
28630;BME280;15817;42.130;24.762;2023-08-17T14:23:01;99497.31;;;34.33;31.63
28630;BME280;15817;42.130;24.762;2023-08-17T14:25:27;99482.97;;;34.29;31.96
28630;BME280;15817;42.130;24.762;2023-08-17T14:28:07;99486.22;;;34.25;31.70
28630;BME280;15817;42.130;24.762;2023-08-17T14:31:03;99488.16;;;34.32;32.33
28630;BME280;15817;42.130;24.762;2023-08-17T14:33:58;99488.09;;;34.16;32.32
28630;BME280;15817;42.130;24.762;2023-08-17T14:36:24;99482.75;;;34.14;32.64
28630;BME280;15817;42.130;24.762;2023-08-17T14:38:52;99487.06;;;34.17;32.66
28630;BME280;15817;42.130;24.762;2023-08-17T14:41:21;99481.84;;;34.06;32.77
28630;BME280;15817;42.130;24.762;2023-08-17T14:43:47;99481.34;;;34.02;33.18
28630;BME280;15817;42.130;24.762;2023-08-17T14:46:13;99492.72;;;33.99;33.43
28630;BME280;15817;42.130;24.762;2023-08-17T14:48:42;99481.66;;;33.91;33.29
28630;BME280;15817;42.130;24.762;2023-08-17T14:51:28;99485.28;;;33.92;33.54
28630;BME280;15817;42.130;24.762;2023-08-17T14:54:20;99487.50;;;33.88;33.75
28630;BME280;15817;42.130;24.762;2023-08-17T14:57:25;99479.22;;;33.80;34.18
28630;BME280;15817;42.130;24.762;2023-08-17T14:59:53;99473.44;;;33.73;35.35
28630;BME280;15817;42.130;24.762;2023-08-17T15:02:36;99473.44;;;33.65;35.55
28630;BME280;15817;42.130;24.762;2023-08-17T15:05:47;99471.53;;;33.66;36.19
28630;BME280;15817;42.130;24.762;2023-08-17T15:12:40;99483.75;;;33.63;35.66
28630;BME280;15817;42.130;24.762;2023-08-17T15:15:15;99478.91;;;33.57;35.77
28630;BME280;15817;42.130;24.762;2023-08-17T15:24:45;99483.72;;;33.55;35.90
28630;BME280;15817;42.130;24.762;2023-08-17T15:28:11;99479.72;;;33.50;36.27
28630;BME280;15817;42.130;24.762;2023-08-17T15:34:16;99474.50;;;33.38;36.41
28630;BME280;15817;42.130;24.762;2023-08-17T15:37:17;99465.66;;;33.35;36.77
28630;BME280;15817;42.130;24.762;2023-08-17T15:40:18;99474.66;;;33.37;36.61
28630;BME280;15817;42.130;24.762;2023-08-17T15:43:08;99462.72;;;33.28;36.97
28630;BME280;15817;42.130;24.762;2023-08-17T15:45:59;99461.16;;;33.26;37.50
28630;BME280;15817;42.130;24.762;2023-08-17T15:48:44;99468.72;;;33.24;37.20
28630;BME280;15817;42.130;24.762;2023-08-17T15:51:15;99460.91;;;33.19;37.69
28630;BME280;15817;42.130;24.762;2023-08-17T15:53:41;99460.38;;;33.16;37.82
28630;BME280;15817;42.130;24.762;2023-08-17T15:56:12;99464.16;;;33.15;37.72
28630;BME280;15817;42.130;24.762;2023-08-17T15:58:45;99464.31;;;33.13;37.68
28630;BME280;15817;42.130;24.762;2023-08-17T16:01:19;99462.94;;;33.09;37.78
28630;BME280;15817;42.130;24.762;2023-08-17T16:03:45;99460.50;;;33.06;38.00
28630;BME280;15817;42.130;24.762;2023-08-17T16:06:13;99457.19;;;33.02;37.88
28630;BME280;15817;42.130;24.762;2023-08-17T16:08:50;99474.06;;;32.99;38.06
28630;BME280;15817;42.130;24.762;2023-08-17T16:11:20;99481.28;;;33.00;37.83
28630;BME280;15817;42.130;24.762;2023-08-17T16:13:59;99485.41;;;32.96;38.08
28630;BME280;15817;42.130;24.762;2023-08-17T16:17:51;99490.03;;;32.96;38.34
28630;BME280;15817;42.130;24.762;2023-08-17T16:20:01;99492.25;;;32.92;38.62
28630;BME280;15817;42.130;24.762;2023-08-17T16:22:26;99489.44;;;32.84;38.90
28630;BME280;15817;42.130;24.762;2023-08-17T16:24:56;99488.56;;;32.84;39.01
28630;BME280;15817;42.130;24.762;2023-08-17T16:27:24;99498.56;;;32.85;38.97
28630;BME280;15817;42.130;24.762;2023-08-17T16:29:50;99507.31;;;32.80;39.31
28630;BME280;15817;42.130;24.762;2023-08-17T16:32:21;99493.31;;;32.73;39.42
28630;BME280;15817;42.130;24.762;2023-08-17T16:34:58;99488.09;;;32.70;39.52
28630;BME280;15817;42.130;24.762;2023-08-17T16:37:44;99491.50;;;32.64;40.11
28630;BME280;15817;42.130;24.762;2023-08-17T16:40:15;99492.09;;;32.58;39.83
28630;BME280;15817;42.130;24.762;2023-08-17T16:42:44;99496.03;;;32.56;39.74
28630;BME280;15817;42.130;24.762;2023-08-17T16:45:25;99501.19;;;32.51;39.90
28630;BME280;15817;42.130;24.762;2023-08-17T16:48:06;99498.72;;;32.48;40.15
28630;BME280;15817;42.130;24.762;2023-08-17T16:50:50;99501.78;;;32.45;40.42
28630;BME280;15817;42.130;24.762;2023-08-17T16:53:39;99510.91;;;32.45;40.79
28630;BME280;15817;42.130;24.762;2023-08-17T16:56:11;99503.16;;;32.41;40.76
28630;BME280;15817;42.130;24.762;2023-08-17T16:59:08;99519.66;;;32.41;40.66
28630;BME280;15817;42.130;24.762;2023-08-17T17:01:49;99513.03;;;32.33;40.89
28630;BME280;15817;42.130;24.762;2023-08-17T17:04:15;99523.34;;;32.31;41.29
28630;BME280;15817;42.130;24.762;2023-08-17T17:06:42;99524.53;;;32.29;41.11
28630;BME280;15817;42.130;24.762;2023-08-17T17:09:08;99525.28;;;32.21;40.77
28630;BME280;15817;42.130;24.762;2023-08-17T17:11:36;99517.94;;;32.12;40.59
28630;BME280;15817;42.130;24.762;2023-08-17T17:14:04;99533.59;;;32.12;40.30
28630;BME280;15817;42.130;24.762;2023-08-17T17:16:32;99528.22;;;32.10;40.59
28630;BME280;15817;42.130;24.762;2023-08-17T17:18:57;99538.00;;;32.05;39.91
28630;BME280;15817;42.130;24.762;2023-08-17T17:21:23;99543.50;;;32.05;40.09
28630;BME280;15817;42.130;24.762;2023-08-17T17:23:49;99541.91;;;32.02;40.08
28630;BME280;15817;42.130;24.762;2023-08-17T17:26:15;99551.75;;;32.05;39.76
28630;BME280;15817;42.130;24.762;2023-08-17T17:28:43;99544.25;;;31.97;40.09
28630;BME280;15817;42.130;24.762;2023-08-17T17:31:09;99553.53;;;31.96;39.89
28630;BME280;15817;42.130;24.762;2023-08-17T17:33:37;99554.56;;;31.85;39.14
28630;BME280;15817;42.130;24.762;2023-08-17T17:36:04;99560.94;;;31.86;39.14
28630;BME280;15817;42.130;24.762;2023-08-17T17:38:30;99554.91;;;31.82;39.37
28630;BME280;15817;42.130;24.762;2023-08-17T17:40:56;99557.09;;;31.79;39.21
28630;BME280;15817;42.130;24.762;2023-08-17T17:43:32;99558.25;;;31.76;39.25
28630;BME280;15817;42.130;24.762;2023-08-17T17:45:58;99570.41;;;31.74;38.76
28630;BME280;15817;42.130;24.762;2023-08-17T17:48:28;99571.91;;;31.68;38.76
28630;BME280;15817;42.130;24.762;2023-08-17T17:50:54;99568.88;;;31.61;38.62
28630;BME280;15817;42.130;24.762;2023-08-17T17:53:20;99570.56;;;31.62;38.86
28630;BME280;15817;42.130;24.762;2023-08-17T17:55:46;99575.97;;;31.54;38.76
28630;BME280;15817;42.130;24.762;2023-08-17T17:58:12;99580.59;;;31.54;39.09
28630;BME280;15817;42.130;24.762;2023-08-17T18:00:38;99572.97;;;31.48;39.00
28630;BME280;15817;42.130;24.762;2023-08-17T18:03:10;99585.41;;;31.42;39.09
28630;BME280;15817;42.130;24.762;2023-08-17T18:06:01;99592.22;;;31.38;38.94
28630;BME280;15817;42.130;24.762;2023-08-17T18:08:33;99593.69;;;31.33;39.14
28630;BME280;15817;42.130;24.762;2023-08-17T18:11:04;99596.16;;;31.26;39.25
28630;BME280;15817;42.130;24.762;2023-08-17T18:13:35;99596.31;;;31.24;39.55
28630;BME280;15817;42.130;24.762;2023-08-17T18:16:04;99596.44;;;31.23;39.88
28630;BME280;15817;42.130;24.762;2023-08-17T18:19:02;99605.41;;;31.25;39.92
28630;BME280;15817;42.130;24.762;2023-08-17T18:21:39;99614.53;;;31.25;40.07
28630;BME280;15817;42.130;24.762;2023-08-17T18:24:10;99619.88;;;31.17;40.26
28630;BME280;15817;42.130;24.762;2023-08-17T18:27:00;99620.47;;;31.11;40.00
28630;BME280;15817;42.130;24.762;2023-08-17T18:29:55;99632.06;;;31.15;40.12
28630;BME280;15817;42.130;24.762;2023-08-17T18:33:07;99637.50;;;31.05;40.16
28630;BME280;15817;42.130;24.762;2023-08-17T18:35:36;99641.09;;;31.06;40.52
28630;BME280;15817;42.130;24.762;2023-08-17T18:38:15;99636.94;;;30.92;40.26
28630;BME280;15817;42.130;24.762;2023-08-17T18:40:47;99639.97;;;30.89;40.38
28630;BME280;15817;42.130;24.762;2023-08-17T18:43:25;99652.56;;;30.91;40.31
28630;BME280;15817;42.130;24.762;2023-08-17T18:49:00;99656.13;;;30.82;40.28
28630;BME280;15817;42.130;24.762;2023-08-17T18:52:06;99671.75;;;30.82;40.41
28630;BME280;15817;42.130;24.762;2023-08-17T18:54:35;99665.25;;;30.73;40.84
28630;BME280;15817;42.130;24.762;2023-08-17T18:57:07;99671.59;;;30.74;40.53
28630;BME280;15817;42.130;24.762;2023-08-17T18:59:38;99661.03;;;30.69;40.61
28630;BME280;15817;42.130;24.762;2023-08-17T19:02:10;99667.56;;;30.68;40.40
28630;BME280;15817;42.130;24.762;2023-08-17T19:04:46;99651.34;;;30.65;40.45
28630;BME280;15817;42.130;24.762;2023-08-17T19:07:22;99653.38;;;30.63;40.38
28630;BME280;15817;42.130;24.762;2023-08-17T19:10:08;99663.34;;;30.54;40.06
28630;BME280;15817;42.130;24.762;2023-08-17T19:12:52;99656.22;;;30.52;40.15
28630;BME280;15817;42.130;24.762;2023-08-17T19:15:39;99659.34;;;30.47;40.30
28630;BME280;15817;42.130;24.762;2023-08-17T19:18:27;99646.81;;;30.45;40.21
28630;BME280;15817;42.130;24.762;2023-08-17T19:27:36;99664.84;;;30.47;40.23
28630;BME280;15817;42.130;24.762;2023-08-17T19:33:33;99671.31;;;30.37;40.35
28630;BME280;15817;42.130;24.762;2023-08-17T19:37:00;99665.84;;;30.37;40.41
28630;BME280;15817;42.130;24.762;2023-08-17T19:39:59;99683.16;;;30.37;40.24
28630;BME280;15817;42.130;24.762;2023-08-17T19:42:28;99673.91;;;30.29;40.15
28630;BME280;15817;42.130;24.762;2023-08-17T19:44:54;99682.41;;;30.25;40.29
28630;BME280;15817;42.130;24.762;2023-08-17T19:50:50;99689.03;;;30.23;40.48
28630;BME280;15817;42.130;24.762;2023-08-17T19:53:49;99683.25;;;30.16;40.48
28630;BME280;15817;42.130;24.762;2023-08-17T19:56:48;99689.00;;;30.13;40.47
28630;BME280;15817;42.130;24.762;2023-08-17T19:59:26;99700.28;;;30.10;40.82
28630;BME280;15817;42.130;24.762;2023-08-17T20:02:04;99703.81;;;30.01;40.93
28630;BME280;15817;42.130;24.762;2023-08-17T20:04:33;99705.75;;;29.89;41.07
28630;BME280;15817;42.130;24.762;2023-08-17T20:07:02;99712.69;;;29.94;40.94
28630;BME280;15817;42.130;24.762;2023-08-17T20:09:37;99705.44;;;29.83;40.73
28630;BME280;15817;42.130;24.762;2023-08-17T20:12:06;99705.44;;;29.83;41.16
28630;BME280;15817;42.130;24.762;2023-08-17T20:14:38;99706.50;;;29.71;41.14
28630;BME280;15817;42.130;24.762;2023-08-17T20:17:10;99708.25;;;29.72;41.53
28630;BME280;15817;42.130;24.762;2023-08-17T20:19:57;99711.72;;;29.74;41.84
28630;BME280;15817;42.130;24.762;2023-08-17T20:22:25;99707.13;;;29.74;41.80
28630;BME280;15817;42.130;24.762;2023-08-17T20:25:02;99710.72;;;29.75;42.01
28630;BME280;15817;42.130;24.762;2023-08-17T20:27:48;99703.63;;;29.72;42.00
28630;BME280;15817;42.130;24.762;2023-08-17T20:33:01;99707.75;;;29.67;42.21
28630;BME280;15817;42.130;24.762;2023-08-17T20:36:00;99703.72;;;29.61;42.50
28630;BME280;15817;42.130;24.762;2023-08-17T20:38:33;99722.22;;;29.69;42.36
28630;BME280;15817;42.130;24.762;2023-08-17T20:41:12;99728.13;;;29.64;42.97
28630;BME280;15817;42.130;24.762;2023-08-17T20:44:09;99725.38;;;29.64;42.97
28630;BME280;15817;42.130;24.762;2023-08-17T20:46:41;99721.16;;;29.60;43.09
28630;BME280;15817;42.130;24.762;2023-08-17T20:49:12;99716.94;;;29.56;43.28
28630;BME280;15817;42.130;24.762;2023-08-17T20:51:40;99726.03;;;29.57;43.01
28630;BME280;15817;42.130;24.762;2023-08-17T20:54:06;99725.69;;;29.50;43.13
28630;BME280;15817;42.130;24.762;2023-08-17T20:56:34;99723.34;;;29.45;43.35
28630;BME280;15817;42.130;24.762;2023-08-17T20:59:14;99722.88;;;29.40;43.40
28630;BME280;15817;42.130;24.762;2023-08-17T21:01:48;99730.47;;;29.37;43.49
28630;BME280;15817;42.130;24.762;2023-08-17T21:04:14;99724.66;;;29.30;43.80
28630;BME280;15817;42.130;24.762;2023-08-17T21:06:53;99729.25;;;29.30;44.13
28630;BME280;15817;42.130;24.762;2023-08-17T21:09:36;99730.59;;;29.35;44.08
28630;BME280;15817;42.130;24.762;2023-08-17T21:12:28;99736.59;;;29.29;44.16
28630;BME280;15817;42.130;24.762;2023-08-17T21:15:28;99738.47;;;29.29;44.29
28630;BME280;15817;42.130;24.762;2023-08-17T21:18:00;99740.34;;;29.28;44.33
28630;BME280;15817;42.130;24.762;2023-08-17T21:20:41;99732.63;;;29.22;44.95
28630;BME280;15817;42.130;24.762;2023-08-17T21:26:58;99740.91;;;29.11;45.21
28630;BME280;15817;42.130;24.762;2023-08-17T21:29:40;99748.13;;;29.12;45.31
28630;BME280;15817;42.130;24.762;2023-08-17T21:32:06;99752.84;;;29.10;45.58
28630;BME280;15817;42.130;24.762;2023-08-17T21:34:32;99744.41;;;29.02;45.75
28630;BME280;15817;42.130;24.762;2023-08-17T21:37:07;99750.91;;;29.01;45.68
28630;BME280;15817;42.130;24.762;2023-08-17T21:39:34;99752.75;;;29.00;46.02
28630;BME280;15817;42.130;24.762;2023-08-17T21:42:03;99755.50;;;29.00;46.09
28630;BME280;15817;42.130;24.762;2023-08-17T21:44:29;99750.91;;;28.90;46.05
28630;BME280;15817;42.130;24.762;2023-08-17T21:46:59;99759.25;;;28.88;46.40
28630;BME280;15817;42.130;24.762;2023-08-17T21:49:35;99754.78;;;28.87;46.48
28630;BME280;15817;42.130;24.762;2023-08-17T21:52:11;99765.13;;;28.95;46.55
28630;BME280;15817;42.130;24.762;2023-08-17T21:54:40;99759.50;;;28.85;46.51
28630;BME280;15817;42.130;24.762;2023-08-17T21:57:06;99751.81;;;28.79;47.07
28630;BME280;15817;42.130;24.762;2023-08-17T21:59:32;99770.47;;;28.85;46.75
28630;BME280;15817;42.130;24.762;2023-08-17T22:01:58;99767.25;;;28.80;46.98
28630;BME280;15817;42.130;24.762;2023-08-17T22:04:27;99769.00;;;28.81;47.06
28630;BME280;15817;42.130;24.762;2023-08-17T22:07:01;99770.88;;;28.80;47.26
28630;BME280;15817;42.130;24.762;2023-08-17T22:09:29;99773.59;;;28.80;47.32
28630;BME280;15817;42.130;24.762;2023-08-17T22:11:59;99779.72;;;28.84;47.21
28630;BME280;15817;42.130;24.762;2023-08-17T22:14:24;99774.59;;;28.79;47.34
28630;BME280;15817;42.130;24.762;2023-08-17T22:16:50;99778.41;;;28.77;47.70
28630;BME280;15817;42.130;24.762;2023-08-17T22:19:16;99771.00;;;28.79;47.74
28630;BME280;15817;42.130;24.762;2023-08-17T22:21:42;99780.53;;;28.73;47.83
28630;BME280;15817;42.130;24.762;2023-08-17T22:24:08;99781.06;;;28.78;48.00
28630;BME280;15817;42.130;24.762;2023-08-17T22:26:34;99776.56;;;28.77;47.88
28630;BME280;15817;42.130;24.762;2023-08-17T22:28:59;99770.59;;;28.72;47.59
28630;BME280;15817;42.130;24.762;2023-08-17T22:31:32;99777.19;;;28.70;47.91
28630;BME280;15817;42.130;24.762;2023-08-17T22:33:58;99767.59;;;28.64;48.14
28630;BME280;15817;42.130;24.762;2023-08-17T22:36:27;99773.19;;;28.63;48.10
28630;BME280;15817;42.130;24.762;2023-08-17T22:38:52;99780.06;;;28.57;48.38
28630;BME280;15817;42.130;24.762;2023-08-17T22:41:20;99778.84;;;28.61;48.40
28630;BME280;15817;42.130;24.762;2023-08-17T22:43:46;99775.59;;;28.56;48.26
28630;BME280;15817;42.130;24.762;2023-08-17T22:46:12;99785.41;;;28.59;48.80
28630;BME280;15817;42.130;24.762;2023-08-17T22:48:50;99778.09;;;28.48;48.87
28630;BME280;15817;42.130;24.762;2023-08-17T22:51:20;99786.19;;;28.50;48.79
28630;BME280;15817;42.130;24.762;2023-08-17T22:53:45;99777.97;;;28.50;48.75
28630;BME280;15817;42.130;24.762;2023-08-17T22:56:14;99779.06;;;28.47;48.67
28630;BME280;15817;42.130;24.762;2023-08-17T22:58:42;99777.56;;;28.43;48.47
28630;BME280;15817;42.130;24.762;2023-08-17T23:01:11;99787.41;;;28.45;48.72
28630;BME280;15817;42.130;24.762;2023-08-17T23:03:36;99775.34;;;28.37;48.84
28630;BME280;15817;42.130;24.762;2023-08-17T23:06:02;99773.84;;;28.33;48.90
28630;BME280;15817;42.130;24.762;2023-08-17T23:08:28;99777.22;;;28.36;48.86
28630;BME280;15817;42.130;24.762;2023-08-17T23:10:59;99785.53;;;28.35;49.05
28630;BME280;15817;42.130;24.762;2023-08-17T23:13:28;99778.69;;;28.29;48.89
28630;BME280;15817;42.130;24.762;2023-08-17T23:15:54;99785.03;;;28.30;49.04
28630;BME280;15817;42.130;24.762;2023-08-17T23:18:21;99775.69;;;28.21;49.37
28630;BME280;15817;42.130;24.762;2023-08-17T23:20:47;99774.59;;;28.24;49.39
28630;BME280;15817;42.130;24.762;2023-08-17T23:23:14;99769.38;;;28.21;49.48
28630;BME280;15817;42.130;24.762;2023-08-17T23:25:39;99774.84;;;28.21;49.53
28630;BME280;15817;42.130;24.762;2023-08-17T23:28:07;99771.34;;;28.19;49.68
28630;BME280;15817;42.130;24.762;2023-08-17T23:30:36;99776.91;;;28.17;49.36
28630;BME280;15817;42.130;24.762;2023-08-17T23:33:02;99773.44;;;28.15;49.52
28630;BME280;15817;42.130;24.762;2023-08-17T23:35:28;99771.41;;;28.06;49.56
28630;BME280;15817;42.130;24.762;2023-08-17T23:37:56;99775.41;;;28.02;49.87
28630;BME280;15817;42.130;24.762;2023-08-17T23:40:24;99773.41;;;28.04;49.67
28630;BME280;15817;42.130;24.762;2023-08-17T23:42:50;99773.28;;;28.05;49.46
28630;BME280;15817;42.130;24.762;2023-08-17T23:45:16;99785.59;;;28.00;49.86
28630;BME280;15817;42.130;24.762;2023-08-17T23:47:42;99785.34;;;28.03;49.58
28630;BME280;15817;42.130;24.762;2023-08-17T23:50:11;99772.78;;;28.00;49.59
28630;BME280;15817;42.130;24.762;2023-08-17T23:52:37;99786.22;;;28.03;49.70
28630;BME280;15817;42.130;24.762;2023-08-17T23:55:05;99769.78;;;27.92;49.84
28630;BME280;15817;42.130;24.762;2023-08-17T23:57:32;99766.19;;;27.92;49.33
28630;BME280;15817;42.130;24.762;2023-08-17T23:59:58;99782.34;;;27.95;49.39
